Time;durP1;ratioP1;P1;durP2;ratioP2;P2;SDS_P1;SDS_P2;PMS_P1;PMS_P2;Temp;Humidity;BMP_temperature;BMP_pressure;BME280_temperature;BME280_humidity;BME280_pressure;Samples;Min_cycle;Max_cycle;Signal;HPM_P1;HPM_P2
2024/04/06 00:01:18;;;;;;;;;;;15.90;99.90;;;;;;5087178;28;19963;-49
2024/04/06 00:03:44;;;;;;;;;;;15.90;99.90;;;;;;5094597;28;19952;-51
2024/04/06 00:06:09;;;;;;;;;;;15.90;99.90;;;;;;5097132;28;19912;-49
2024/04/06 00:08:35;;;;;;;;;;;15.90;99.90;;;;;;5101275;28;19908;-50
2024/04/06 00:11:00;;;;;;;;;;;15.90;99.90;;;;;;5110653;28;19912;-49
2024/04/06 00:13:26;;;;;;;;;;;15.90;99.90;;;;;;5109280;28;19909;-49
2024/04/06 00:15:51;;;;;;;;;;;15.90;99.90;;;;;;5108466;28;19911;-50
2024/04/06 00:18:17;;;;;;;;;;;15.90;99.90;;;;;;5110733;28;19922;-48
2024/04/06 00:20:42;;;;;;;;;;;15.90;99.90;;;;;;5115464;28;19918;-50
2024/04/06 00:23:08;;;;;;;;;;;15.90;99.90;;;;;;5114506;28;19909;-48
2024/04/06 00:25:33;;;;;;;;;;;15.90;99.90;;;;;;5110340;28;19912;-49
2024/04/06 00:27:59;;;;;;;;;;;15.90;99.90;;;;;;5088396;28;19915;-49
2024/04/06 00:30:24;;;;;;;;;;;15.90;99.90;;;;;;5117323;28;19916;-49
2024/04/06 00:32:50;;;;;;;;;;;15.90;99.90;;;;;;5103991;28;19925;-50
2024/04/06 00:35:16;;;;;;;;;;;15.90;99.90;;;;;;5117598;28;19912;-49
2024/04/06 00:37:42;;;;;;;;;;;15.90;99.90;;;;;;5117199;28;19971;-49
2024/04/06 00:40:07;;;;;;;;;;;15.90;99.90;;;;;;5117716;28;19977;-49
2024/04/06 00:42:33;;;;;;;;;;;15.90;99.90;;;;;;5118024;28;19912;-48
2024/04/06 00:44:58;;;;;;;;;;;15.90;99.90;;;;;;5118406;28;20375;-49
2024/04/06 00:47:24;;;;;;;;;;;15.90;99.90;;;;;;5118431;28;19956;-49
2024/04/06 00:49:49;;;;;;;;;;;15.90;99.90;;;;;;5107469;28;19912;-49
2024/04/06 00:52:15;;;;;;;;;;;15.90;99.90;;;;;;5098022;28;20496;-49
2024/04/06 00:54:40;;;;;;;;;;;15.90;99.90;;;;;;5089641;28;19982;-52
2024/04/06 00:57:07;;;;;;;;;;;15.90;99.90;;;;;;5098717;28;19908;-52
2024/04/06 00:59:37;;;;;;;;;;;15.90;99.90;;;;;;5098839;28;19973;-53
2024/04/06 01:02:03;;;;;;;;;;;15.90;99.90;;;;;;5099099;28;20371;-53
2024/04/06 01:04:29;;;;;;;;;;;15.90;99.90;;;;;;5099496;28;19909;-53
2024/04/06 01:06:55;;;;;;;;;;;16.00;99.90;;;;;;5100029;28;20345;-54
2024/04/06 01:09:20;;;;;;;;;;;15.90;99.90;;;;;;5099554;28;19939;-53
2024/04/06 01:11:47;;;;;;;;;;;16.00;99.90;;;;;;5100641;28;19998;-51
2024/04/06 01:14:12;;;;;;;;;;;15.90;99.90;;;;;;5100658;28;19958;-52
2024/04/06 01:16:38;;;;;;;;;;;15.90;99.90;;;;;;5102117;28;19908;-53
2024/04/06 01:19:03;;;;;;;;;;;16.00;99.90;;;;;;5101058;28;20288;-53
2024/04/06 01:21:31;;;;;;;;;;;16.00;99.90;;;;;;5102565;28;20938;-49
2024/04/06 01:23:56;;;;;;;;;;;16.00;99.90;;;;;;5102326;28;19915;-50
2024/04/06 01:26:22;;;;;;;;;;;16.00;99.90;;;;;;5105492;28;20405;-50
2024/04/06 01:28:48;;;;;;;;;;;16.00;99.90;;;;;;5101360;28;19912;-51
2024/04/06 01:31:13;;;;;;;;;;;16.00;99.90;;;;;;5094907;28;19916;-51
2024/04/06 01:33:39;;;;;;;;;;;15.90;99.90;;;;;;5105341;28;19909;-50
2024/04/06 01:36:05;;;;;;;;;;;16.00;99.90;;;;;;5104345;28;19992;-49
2024/04/06 01:38:31;;;;;;;;;;;16.00;99.90;;;;;;5105220;28;19908;-50
2024/04/06 01:40:56;;;;;;;;;;;16.00;99.90;;;;;;5105481;28;19908;-50
2024/04/06 01:43:22;;;;;;;;;;;16.00;99.90;;;;;;5106905;28;20483;-52
2024/04/06 01:45:47;;;;;;;;;;;16.00;99.90;;;;;;5101310;28;20260;-51
2024/04/06 01:48:13;;;;;;;;;;;15.90;99.90;;;;;;5088536;28;20375;-53
2024/04/06 01:50:38;;;;;;;;;;;16.00;99.90;;;;;;5114316;28;20336;-51
2024/04/06 01:53:04;;;;;;;;;;;16.00;99.90;;;;;;5106441;28;20358;-53
2024/04/06 01:55:29;;;;;;;;;;;16.00;99.90;;;;;;5098010;28;19961;-53
2024/04/06 01:57:55;;;;;;;;;;;16.00;99.90;;;;;;5097174;28;19915;-51
2024/04/06 02:00:20;;;;;;;;;;;16.00;99.90;;;;;;5098451;28;19909;-54
2024/04/06 02:02:46;;;;;;;;;;;16.00;99.90;;;;;;5097538;28;19915;-51
2024/04/06 02:05:11;;;;;;;;;;;16.00;99.90;;;;;;5098356;28;19916;-50
2024/04/06 02:07:37;;;;;;;;;;;16.00;99.90;;;;;;5098061;28;19916;-49
2024/04/06 02:10:02;;;;;;;;;;;16.00;99.90;;;;;;5098407;28;20646;-49
2024/04/06 02:12:28;;;;;;;;;;;16.00;99.90;;;;;;5098304;28;19908;-50
2024/04/06 02:14:53;;;;;;;;;;;16.00;99.90;;;;;;5102405;28;19943;-49
2024/04/06 02:17:19;;;;;;;;;;;16.00;99.90;;;;;;5106407;28;19919;-49
2024/04/06 02:19:44;;;;;;;;;;;16.00;99.90;;;;;;5105345;28;19924;-49
2024/04/06 02:22:10;;;;;;;;;;;16.00;99.90;;;;;;5108982;28;19907;-49
2024/04/06 02:24:36;;;;;;;;;;;16.00;99.90;;;;;;5102481;28;19912;-49
2024/04/06 02:27:02;;;;;;;;;;;16.00;99.90;;;;;;5106426;28;19919;-49
2024/04/06 02:29:28;;;;;;;;;;;16.00;99.90;;;;;;5106304;28;19919;-50
2024/04/06 02:31:54;;;;;;;;;;;16.00;99.90;;;;;;5088561;28;19915;-48
2024/04/06 02:34:20;;;;;;;;;;;16.00;99.90;;;;;;5090926;28;19916;-48
2024/04/06 02:36:45;;;;;;;;;;;16.00;99.90;;;;;;5095679;28;19913;-50
2024/04/06 02:39:11;;;;;;;;;;;16.00;99.90;;;;;;5096052;28;20460;-50
2024/04/06 02:41:36;;;;;;;;;;;16.00;99.90;;;;;;5097144;28;20394;-50
2024/04/06 02:44:02;;;;;;;;;;;16.10;99.90;;;;;;5097073;28;20429;-50
2024/04/06 02:46:28;;;;;;;;;;;16.00;99.90;;;;;;5097161;28;20413;-49
2024/04/06 02:48:54;;;;;;;;;;;16.10;99.90;;;;;;5098048;28;19916;-51
2024/04/06 02:51:20;;;;;;;;;;;16.10;99.90;;;;;;5097061;28;19912;-49
2024/04/06 02:53:45;;;;;;;;;;;16.10;99.90;;;;;;5097917;28;19923;-49
2024/04/06 02:56:11;;;;;;;;;;;16.10;99.90;;;;;;5097461;28;19908;-48
2024/04/06 02:58:37;;;;;;;;;;;16.10;99.90;;;;;;5099225;28;19908;-50
2024/04/06 03:01:03;;;;;;;;;;;16.10;99.90;;;;;;5097458;28;20230;-49
2024/04/06 03:03:28;;;;;;;;;;;16.10;99.90;;;;;;5099763;28;19911;-49
2024/04/06 03:05:53;;;;;;;;;;;16.00;99.90;;;;;;5097491;28;19945;-49
2024/04/06 03:08:19;;;;;;;;;;;16.00;99.90;;;;;;5100054;28;19943;-49
2024/04/06 03:10:44;;;;;;;;;;;16.00;99.90;;;;;;5097894;28;20002;-50
2024/04/06 03:13:10;;;;;;;;;;;16.10;99.90;;;;;;5101206;28;20002;-49
2024/04/06 03:15:36;;;;;;;;;;;16.10;99.90;;;;;;5099172;28;19918;-49
2024/04/06 03:18:01;;;;;;;;;;;16.10;99.90;;;;;;5090874;28;19927;-53
2024/04/06 03:20:27;;;;;;;;;;;16.00;99.90;;;;;;5075050;28;19969;-53
2024/04/06 03:22:59;;;;;;;;;;;16.10;99.90;;;;;;5074739;28;19909;-53
2024/04/06 03:25:26;;;;;;;;;;;16.10;99.90;;;;;;5075220;28;19952;-54
2024/04/06 03:27:51;;;;;;;;;;;16.00;99.90;;;;;;5074903;28;20333;-54
2024/04/06 03:30:17;;;;;;;;;;;16.10;99.90;;;;;;5075071;28;19982;-53
2024/04/06 03:32:42;;;;;;;;;;;16.00;99.90;;;;;;5075271;28;19995;-53
2024/04/06 03:35:08;;;;;;;;;;;16.00;99.90;;;;;;5074886;28;20435;-52
2024/04/06 03:37:33;;;;;;;;;;;16.10;99.90;;;;;;5075212;28;20459;-53
2024/04/06 03:39:59;;;;;;;;;;;16.10;99.90;;;;;;5074341;28;20549;-54
2024/04/06 03:42:25;;;;;;;;;;;16.00;99.90;;;;;;5075115;28;19909;-53
2024/04/06 03:44:50;;;;;;;;;;;16.00;99.90;;;;;;5074535;28;19912;-52
2024/04/06 03:47:16;;;;;;;;;;;16.00;99.90;;;;;;5074679;28;19908;-53
2024/04/06 03:49:42;;;;;;;;;;;16.00;99.90;;;;;;5073367;28;20410;-54
2024/04/06 03:52:08;;;;;;;;;;;16.00;99.90;;;;;;5069487;28;20288;-54
2024/04/06 03:54:33;;;;;;;;;;;16.00;99.90;;;;;;5074832;28;19913;-53
2024/04/06 03:56:59;;;;;;;;;;;16.00;99.90;;;;;;5074792;28;19909;-54
2024/04/06 03:59:25;;;;;;;;;;;16.00;99.90;;;;;;5074755;28;19908;-54
2024/04/06 04:01:50;;;;;;;;;;;16.00;99.90;;;;;;5074663;28;19976;-53
2024/04/06 04:04:16;;;;;;;;;;;16.00;99.90;;;;;;5074930;28;20460;-50
2024/04/06 04:06:41;;;;;;;;;;;16.00;99.90;;;;;;5074766;28;20411;-51
2024/04/06 04:09:07;;;;;;;;;;;16.00;99.90;;;;;;5074314;28;19909;-53
2024/04/06 04:11:33;;;;;;;;;;;16.00;99.90;;;;;;5075009;28;19912;-52
2024/04/06 04:13:58;;;;;;;;;;;16.00;99.90;;;;;;5074201;28;19915;-51
2024/04/06 04:16:24;;;;;;;;;;;16.00;99.90;;;;;;5074847;28;19943;-54
2024/04/06 04:18:49;;;;;;;;;;;16.00;99.90;;;;;;5089473;28;19963;-53
2024/04/06 04:21:15;;;;;;;;;;;16.00;99.90;;;;;;5097221;28;19912;-51
2024/04/06 04:23:41;;;;;;;;;;;16.00;99.90;;;;;;5104277;28;19915;-53
2024/04/06 04:26:07;;;;;;;;;;;16.00;99.90;;;;;;5101438;28;19908;-53
2024/04/06 04:28:32;;;;;;;;;;;16.00;99.90;;;;;;5115781;28;20319;-49
2024/04/06 04:31:11;;;;;;;;;;;16.00;99.90;;;;;;5114864;28;20035;-50
2024/04/06 04:33:36;;;;;;;;;;;16.00;99.90;;;;;;5097057;28;20295;-50
2024/04/06 04:36:02;;;;;;;;;;;16.00;99.90;;;;;;5102524;28;19915;-50
2024/04/06 04:38:28;;;;;;;;;;;16.00;99.90;;;;;;5115579;28;19985;-50
2024/04/06 04:40:53;;;;;;;;;;;16.00;99.90;;;;;;5115025;28;19914;-49
2024/04/06 04:43:19;;;;;;;;;;;16.00;99.90;;;;;;5115480;28;19914;-50
2024/04/06 04:45:45;;;;;;;;;;;16.00;99.90;;;;;;5101624;28;20287;-50
2024/04/06 04:48:10;;;;;;;;;;;16.00;99.90;;;;;;5105287;28;19910;-49
2024/04/06 04:50:36;;;;;;;;;;;16.00;99.90;;;;;;5111982;28;20786;-49
2024/04/06 04:53:02;;;;;;;;;;;16.00;99.90;;;;;;5114676;28;19999;-49
2024/04/06 04:55:27;;;;;;;;;;;16.00;99.90;;;;;;5106377;28;19998;-50
2024/04/06 04:57:52;;;;;;;;;;;16.00;99.90;;;;;;5115626;28;19908;-51
2024/04/06 05:00:18;;;;;;;;;;;16.00;99.90;;;;;;5101022;28;19908;-50
2024/04/06 05:02:44;;;;;;;;;;;16.00;99.90;;;;;;5098962;28;19919;-49
2024/04/06 05:05:09;;;;;;;;;;;16.00;99.90;;;;;;5103004;28;19930;-50
2024/04/06 05:07:35;;;;;;;;;;;16.00;99.90;;;;;;5108319;28;19930;-50
2024/04/06 05:10:00;;;;;;;;;;;16.00;99.90;;;;;;5093369;28;19959;-49
2024/04/06 05:12:26;;;;;;;;;;;16.00;99.90;;;;;;5117818;28;20010;-49
2024/04/06 05:14:51;;;;;;;;;;;16.00;99.90;;;;;;5114734;28;19908;-50
2024/04/06 05:17:18;;;;;;;;;;;16.00;99.90;;;;;;5105833;28;19958;-49
2024/04/06 05:19:44;;;;;;;;;;;16.00;99.90;;;;;;5084612;28;20299;-52
2024/04/06 05:22:09;;;;;;;;;;;16.00;99.90;;;;;;5098046;28;19912;-50
2024/04/06 05:24:35;;;;;;;;;;;16.00;99.90;;;;;;5097193;28;20050;-51
2024/04/06 05:27:02;;;;;;;;;;;16.00;99.90;;;;;;5099428;28;19912;-49
2024/04/06 05:29:28;;;;;;;;;;;16.00;99.90;;;;;;5101606;28;20544;-51
2024/04/06 05:31:56;;;;;;;;;;;16.00;99.90;;;;;;5097552;28;20193;-49
2024/04/06 05:34:22;;;;;;;;;;;16.00;99.90;;;;;;5098015;28;19908;-49
2024/04/06 05:36:47;;;;;;;;;;;16.00;99.90;;;;;;5097061;28;20393;-50
2024/04/06 05:39:13;;;;;;;;;;;15.90;99.90;;;;;;5097664;28;19948;-51
2024/04/06 05:41:38;;;;;;;;;;;15.90;99.90;;;;;;5102843;28;20351;-53
2024/04/06 05:44:04;;;;;;;;;;;16.00;99.90;;;;;;5094549;28;19976;-52
2024/04/06 05:46:29;;;;;;;;;;;15.90;99.90;;;;;;5096783;28;20442;-53
2024/04/06 05:48:55;;;;;;;;;;;15.90;99.90;;;;;;5097582;28;20471;-52
2024/04/06 05:51:21;;;;;;;;;;;15.90;99.90;;;;;;5107037;28;20266;-54
2024/04/06 05:53:46;;;;;;;;;;;15.90;99.90;;;;;;5107437;28;19908;-52
2024/04/06 05:56:12;;;;;;;;;;;15.90;99.90;;;;;;5110041;28;20015;-53
2024/04/06 05:58:37;;;;;;;;;;;15.90;99.90;;;;;;5102368;28;19907;-49
2024/04/06 06:01:03;;;;;;;;;;;15.90;99.90;;;;;;5097955;28;20382;-50
2024/04/06 06:03:28;;;;;;;;;;;15.90;99.90;;;;;;5092976;28;19912;-54
2024/04/06 06:05:54;;;;;;;;;;;15.80;99.90;;;;;;5094145;28;19915;-51
2024/04/06 06:08:19;;;;;;;;;;;15.90;99.90;;;;;;5093122;28;19965;-50
2024/04/06 06:10:45;;;;;;;;;;;15.90;99.90;;;;;;5096118;28;19912;-49
2024/04/06 06:13:10;;;;;;;;;;;15.90;99.90;;;;;;5090745;28;19920;-48
2024/04/06 06:15:36;;;;;;;;;;;15.90;99.90;;;;;;5095677;28;19923;-49
2024/04/06 06:18:02;;;;;;;;;;;15.90;99.90;;;;;;5094953;28;19924;-51
2024/04/06 06:20:28;;;;;;;;;;;15.90;99.90;;;;;;5095482;28;20006;-50
2024/04/06 06:22:53;;;;;;;;;;;15.90;99.90;;;;;;5097351;28;19955;-49
2024/04/06 06:25:19;;;;;;;;;;;15.90;99.90;;;;;;5088489;28;20003;-49
2024/04/06 06:27:44;;;;;;;;;;;15.90;99.90;;;;;;5092290;28;19918;-50
2024/04/06 06:30:10;;;;;;;;;;;15.90;99.90;;;;;;5094033;28;19946;-49
2024/04/06 06:32:35;;;;;;;;;;;15.90;99.90;;;;;;5091497;28;19908;-49
2024/04/06 06:35:02;;;;;;;;;;;15.90;99.90;;;;;;5092225;28;19961;-50
2024/04/06 06:37:27;;;;;;;;;;;15.80;99.90;;;;;;5087859;28;20398;-53
2024/04/06 06:39:53;;;;;;;;;;;15.90;99.90;;;;;;5087998;28;19912;-48
2024/04/06 06:42:18;;;;;;;;;;;15.90;99.90;;;;;;5093248;28;19912;-49
2024/04/06 06:44:44;;;;;;;;;;;15.90;99.90;;;;;;5091655;28;19912;-51
2024/04/06 06:47:09;;;;;;;;;;;15.90;99.90;;;;;;5095968;28;20311;-49
2024/04/06 06:49:35;;;;;;;;;;;15.80;99.90;;;;;;5096108;28;19912;-48
2024/04/06 06:52:00;;;;;;;;;;;15.80;99.90;;;;;;5092799;28;19917;-50
2024/04/06 06:54:27;;;;;;;;;;;15.80;99.90;;;;;;5094296;28;19908;-51
2024/04/06 06:56:53;;;;;;;;;;;15.80;99.90;;;;;;5094824;28;19979;-52
2024/04/06 06:59:18;;;;;;;;;;;15.90;99.90;;;;;;5087773;28;20404;-52
2024/04/06 07:01:44;;;;;;;;;;;15.90;99.90;;;;;;5094816;28;19938;-53
2024/04/06 07:04:09;;;;;;;;;;;15.80;99.90;;;;;;5095594;28;19908;-50
2024/04/06 07:06:35;;;;;;;;;;;15.80;99.90;;;;;;5093548;28;20268;-49
2024/04/06 07:09:01;;;;;;;;;;;15.80;99.90;;;;;;5094744;28;19916;-50
2024/04/06 07:11:27;;;;;;;;;;;15.80;99.90;;;;;;5093006;28;20359;-50
2024/04/06 07:13:52;;;;;;;;;;;15.80;99.90;;;;;;5094795;28;19977;-49
2024/04/06 07:16:18;;;;;;;;;;;15.80;99.90;;;;;;5095365;28;19965;-50
2024/04/06 07:18:44;;;;;;;;;;;15.80;99.90;;;;;;5094640;28;19996;-50
2024/04/06 07:21:10;;;;;;;;;;;15.80;99.90;;;;;;5094161;28;19942;-51
2024/04/06 07:23:37;;;;;;;;;;;15.80;99.90;;;;;;5094958;28;19927;-50
2024/04/06 07:26:02;;;;;;;;;;;15.80;99.90;;;;;;5093525;28;19916;-54
2024/04/06 07:28:28;;;;;;;;;;;15.80;99.90;;;;;;5095158;28;19912;-49
2024/04/06 07:30:53;;;;;;;;;;;15.80;99.90;;;;;;5094828;28;19937;-50
2024/04/06 07:33:19;;;;;;;;;;;15.80;99.90;;;;;;5095925;28;19995;-51
2024/04/06 07:35:48;;;;;;;;;;;15.80;99.90;;;;;;5094962;28;19908;-49
2024/04/06 07:38:13;;;;;;;;;;;15.80;99.90;;;;;;5095629;28;19908;-50
2024/04/06 07:40:39;;;;;;;;;;;15.80;99.90;;;;;;5095692;28;19908;-50
2024/04/06 07:43:04;;;;;;;;;;;15.80;99.90;;;;;;5094828;28;20379;-51
2024/04/06 07:45:30;;;;;;;;;;;15.90;99.90;;;;;;5093833;28;19915;-52
2024/04/06 07:47:56;;;;;;;;;;;15.90;99.90;;;;;;5103663;28;19937;-50
2024/04/06 07:50:22;;;;;;;;;;;15.80;99.90;;;;;;5107737;28;19915;-53
2024/04/06 07:52:47;;;;;;;;;;;15.80;99.90;;;;;;5107733;28;19915;-50
2024/04/06 07:55:13;;;;;;;;;;;15.80;99.90;;;;;;5098445;28;19918;-53
2024/04/06 07:57:38;;;;;;;;;;;15.80;99.90;;;;;;5100366;28;19912;-52
2024/04/06 08:00:05;;;;;;;;;;;15.80;99.90;;;;;;5102713;28;20007;-52
2024/04/06 08:02:30;;;;;;;;;;;15.80;99.90;;;;;;5105392;28;19943;-51
2024/04/06 08:04:56;;;;;;;;;;;15.80;99.90;;;;;;5090514;28;20306;-50
2024/04/06 08:07:25;;;;;;;;;;;15.80;99.90;;;;;;5107487;28;19980;-49
2024/04/06 08:09:58;;;;;;;;;;;15.80;99.90;;;;;;5107007;28;19974;-56
2024/04/06 08:12:24;;;;;;;;;;;15.80;99.90;;;;;;5101536;28;20291;-50
2024/04/06 08:14:50;;;;;;;;;;;15.80;99.90;;;;;;5094049;28;19916;-49
2024/04/06 08:17:16;;;;;;;;;;;15.80;99.90;;;;;;5093393;28;19912;-47
2024/04/06 08:19:41;;;;;;;;;;;15.90;99.90;;;;;;5094363;28;19923;-48
2024/04/06 08:22:07;;;;;;;;;;;15.90;99.90;;;;;;5093787;28;19916;-47
2024/04/06 08:24:32;;;;;;;;;;;15.90;99.90;;;;;;5093987;28;19912;-47
2024/04/06 08:26:58;;;;;;;;;;;15.90;99.90;;;;;;5093792;28;19912;-47
2024/04/06 08:29:23;;;;;;;;;;;15.90;99.90;;;;;;5093864;28;20332;-47
2024/04/06 08:31:49;;;;;;;;;;;15.90;99.90;;;;;;5090306;28;19977;-48
2024/04/06 08:34:14;;;;;;;;;;;15.90;99.90;;;;;;5097677;28;19908;-47
2024/04/06 08:36:40;;;;;;;;;;;15.90;99.90;;;;;;5097728;28;19912;-48
2024/04/06 08:39:05;;;;;;;;;;;15.90;99.90;;;;;;5092693;28;19916;-47
2024/04/06 08:41:32;;;;;;;;;;;16.00;99.90;;;;;;5092592;28;20279;-48
2024/04/06 08:43:58;;;;;;;;;;;15.90;99.90;;;;;;5097058;28;20290;-47
2024/04/06 08:46:23;;;;;;;;;;;16.00;99.90;;;;;;5097761;28;20291;-48
2024/04/06 08:48:49;;;;;;;;;;;16.00;99.90;;;;;;5097636;28;19956;-48
2024/04/06 08:51:17;;;;;;;;;;;16.00;99.90;;;;;;5097873;28;20045;-47
2024/04/06 08:53:42;;;;;;;;;;;16.00;99.90;;;;;;5097194;28;19922;-47
2024/04/06 08:56:08;;;;;;;;;;;16.00;99.90;;;;;;5096483;28;19951;-47
2024/04/06 08:58:34;;;;;;;;;;;16.00;99.90;;;;;;5097044;28;19912;-48
2024/04/06 09:01:00;;;;;;;;;;;16.00;99.90;;;;;;5096236;28;19919;-48
2024/04/06 09:03:26;;;;;;;;;;;16.00;99.90;;;;;;5097036;28;20209;-48
2024/04/06 09:05:52;;;;;;;;;;;16.00;99.90;;;;;;5089935;28;20174;-47
2024/04/06 09:08:17;;;;;;;;;;;16.00;99.90;;;;;;5093075;28;19969;-47
2024/04/06 09:10:46;;;;;;;;;;;16.00;99.90;;;;;;5096809;28;19920;-48
2024/04/06 09:13:11;;;;;;;;;;;16.00;99.90;;;;;;5096743;28;19995;-47
2024/04/06 09:15:37;;;;;;;;;;;16.00;99.90;;;;;;5096963;28;19955;-47
2024/04/06 09:18:03;;;;;;;;;;;16.00;99.90;;;;;;5096161;28;20305;-47
2024/04/06 09:20:29;;;;;;;;;;;16.00;99.90;;;;;;5111348;28;19974;-47
2024/04/06 09:22:55;;;;;;;;;;;16.00;99.90;;;;;;5110745;28;19916;-49
2024/04/06 09:25:21;;;;;;;;;;;16.00;99.90;;;;;;5111377;28;19915;-47
2024/04/06 09:27:47;;;;;;;;;;;16.00;99.90;;;;;;5110564;28;19915;-47
2024/04/06 09:30:13;;;;;;;;;;;16.00;99.90;;;;;;5096298;28;19928;-47
2024/04/06 09:32:39;;;;;;;;;;;16.00;99.90;;;;;;5085018;28;19912;-49
2024/04/06 09:35:05;;;;;;;;;;;16.00;99.90;;;;;;5095962;28;19908;-50
2024/04/06 09:37:30;;;;;;;;;;;16.00;99.90;;;;;;5085479;28;19916;-50
2024/04/06 09:39:56;;;;;;;;;;;16.00;99.90;;;;;;5091792;28;19920;-51
2024/04/06 09:42:22;;;;;;;;;;;16.00;99.90;;;;;;5094619;28;19915;-51
2024/04/06 09:44:49;;;;;;;;;;;16.10;99.90;;;;;;5094658;28;20033;-50
2024/04/06 09:47:16;;;;;;;;;;;16.10;99.90;;;;;;5096187;28;19942;-49
2024/04/06 09:49:42;;;;;;;;;;;16.00;99.90;;;;;;5094050;28;20069;-52
2024/04/06 09:52:08;;;;;;;;;;;16.10;99.90;;;;;;5090969;28;20082;-50
2024/04/06 09:54:34;;;;;;;;;;;16.10;99.90;;;;;;5091512;28;20014;-51
2024/04/06 09:56:59;;;;;;;;;;;16.10;99.90;;;;;;5096007;28;20249;-51
2024/04/06 09:59:28;;;;;;;;;;;16.10;99.90;;;;;;5096251;28;19908;-51
2024/04/06 10:01:54;;;;;;;;;;;16.10;99.90;;;;;;5095915;28;19908;-51
2024/04/06 10:04:23;;;;;;;;;;;16.10;99.90;;;;;;5096633;28;19908;-51
2024/04/06 10:06:55;;;;;;;;;;;16.10;99.90;;;;;;5095604;28;20397;-48
2024/04/06 10:09:21;;;;;;;;;;;16.10;99.90;;;;;;5096257;28;19915;-51
2024/04/06 10:11:46;;;;;;;;;;;16.10;99.90;;;;;;5094735;28;19959;-51
2024/04/06 10:14:12;;;;;;;;;;;16.10;99.90;;;;;;5094079;28;20363;-48
2024/04/06 10:16:41;;;;;;;;;;;16.10;99.90;;;;;;5094840;28;19995;-51
2024/04/06 10:19:08;;;;;;;;;;;16.10;99.90;;;;;;5092924;28;20195;-49
2024/04/06 10:21:34;;;;;;;;;;;16.10;99.90;;;;;;5094528;28;20296;-50
2024/04/06 10:24:05;;;;;;;;;;;16.10;99.90;;;;;;5091692;28;19939;-49
2024/04/06 10:26:33;;;;;;;;;;;16.10;99.90;;;;;;5089910;28;20307;-52
2024/04/06 10:28:59;;;;;;;;;;;16.10;99.90;;;;;;5092317;28;19914;-47
2024/04/06 10:31:25;;;;;;;;;;;16.20;99.90;;;;;;5094540;28;19912;-47
2024/04/06 10:33:50;;;;;;;;;;;16.20;99.90;;;;;;5095419;28;19912;-47
2024/04/06 10:36:16;;;;;;;;;;;16.20;99.90;;;;;;5094988;28;19912;-49
2024/04/06 10:38:44;;;;;;;;;;;16.20;99.90;;;;;;5095305;28;19927;-47
2024/04/06 10:41:09;;;;;;;;;;;16.20;99.90;;;;;;5090171;28;19919;-47
2024/04/06 10:43:35;;;;;;;;;;;16.20;99.90;;;;;;5090198;28;20363;-48
2024/04/06 10:46:02;;;;;;;;;;;16.20;99.90;;;;;;5093409;28;20279;-50
2024/04/06 10:48:27;;;;;;;;;;;16.20;99.90;;;;;;5086364;28;19947;-49
2024/04/06 10:50:53;;;;;;;;;;;16.20;99.90;;;;;;5086249;28;19913;-47
2024/04/06 10:53:19;;;;;;;;;;;16.20;99.90;;;;;;5086369;28;20409;-48
2024/04/06 10:55:46;;;;;;;;;;;16.20;99.90;;;;;;5094394;28;19916;-48
2024/04/06 10:58:11;;;;;;;;;;;16.30;99.90;;;;;;5095043;28;19919;-48
2024/04/06 11:00:43;;;;;;;;;;;16.30;99.90;;;;;;5076748;28;19908;-47
2024/04/06 11:03:08;;;;;;;;;;;16.30;99.90;;;;;;5095009;28;19970;-48
2024/04/06 11:05:34;;;;;;;;;;;16.30;99.90;;;;;;5095120;28;19912;-47
2024/04/06 11:08:00;;;;;;;;;;;16.30;99.90;;;;;;5093365;28;20451;-49
2024/04/06 11:10:26;;;;;;;;;;;16.30;99.90;;;;;;5104269;28;19916;-47
2024/04/06 11:12:51;;;;;;;;;;;16.30;99.90;;;;;;5097940;28;19956;-47
2024/04/06 11:15:17;;;;;;;;;;;16.30;99.90;;;;;;5095749;28;19908;-47
2024/04/06 11:17:42;;;;;;;;;;;16.40;99.90;;;;;;5095355;28;19916;-47
2024/04/06 11:20:09;;;;;;;;;;;16.40;99.90;;;;;;5099439;28;19914;-47
2024/04/06 11:22:38;;;;;;;;;;;16.40;99.90;;;;;;5089969;28;19957;-47
2024/04/06 11:25:04;;;;;;;;;;;16.40;99.90;;;;;;5104188;28;19950;-46
2024/04/06 11:27:29;;;;;;;;;;;16.40;99.90;;;;;;5096867;28;19908;-47
2024/04/06 11:29:58;;;;;;;;;;;16.40;99.90;;;;;;5099526;28;19920;-47
2024/04/06 11:32:24;;;;;;;;;;;16.40;99.90;;;;;;5083212;28;19913;-47
2024/04/06 11:34:50;;;;;;;;;;;16.40;99.90;;;;;;5095106;28;20428;-47
2024/04/06 11:37:17;;;;;;;;;;;16.40;99.90;;;;;;5095058;28;20393;-47
2024/04/06 11:39:43;;;;;;;;;;;16.40;99.90;;;;;;5093773;28;19924;-47
2024/04/06 11:42:09;;;;;;;;;;;16.40;99.90;;;;;;5078138;28;19916;-47
2024/04/06 11:44:34;;;;;;;;;;;16.40;99.90;;;;;;5094024;28;19923;-47
2024/04/06 11:47:00;;;;;;;;;;;16.40;99.90;;;;;;5092925;28;19922;-47
2024/04/06 11:49:25;;;;;;;;;;;16.40;99.90;;;;;;5086387;28;20371;-47
2024/04/06 11:51:51;;;;;;;;;;;16.40;99.90;;;;;;5092223;28;19912;-47
2024/04/06 11:54:16;;;;;;;;;;;16.40;99.90;;;;;;5088721;28;19935;-46
2024/04/06 11:56:42;;;;;;;;;;;16.40;99.90;;;;;;5092200;28;19939;-47
2024/04/06 11:59:07;;;;;;;;;;;16.40;99.90;;;;;;5097814;28;20335;-47
2024/04/06 12:01:33;;;;;;;;;;;16.40;99.90;;;;;;5101383;28;19972;-46
2024/04/06 12:03:59;;;;;;;;;;;16.40;99.90;;;;;;5095120;28;19979;-47
2024/04/06 12:06:24;;;;;;;;;;;16.40;99.90;;;;;;5095398;28;20390;-47
2024/04/06 12:08:52;;;;;;;;;;;16.40;99.90;;;;;;5098900;28;19908;-47
2024/04/06 12:11:17;;;;;;;;;;;16.40;99.90;;;;;;5099265;28;20321;-47
2024/04/06 12:13:43;;;;;;;;;;;16.40;99.90;;;;;;5099614;28;19970;-46
2024/04/06 12:16:08;;;;;;;;;;;16.40;99.90;;;;;;5086317;28;19951;-46
2024/04/06 12:18:34;;;;;;;;;;;16.40;99.90;;;;;;5099376;28;19916;-47
2024/04/06 12:21:00;;;;;;;;;;;16.40;99.90;;;;;;5103479;28;19908;-46
2024/04/06 12:23:27;;;;;;;;;;;16.40;99.90;;;;;;5098694;28;19962;-47
2024/04/06 12:25:52;;;;;;;;;;;16.40;99.90;;;;;;5091304;28;19911;-47
2024/04/06 12:28:18;;;;;;;;;;;16.40;99.90;;;;;;5094847;28;19935;-48
2024/04/06 12:30:43;;;;;;;;;;;16.40;99.90;;;;;;5099264;28;19926;-52
2024/04/06 12:33:09;;;;;;;;;;;16.40;99.90;;;;;;5097302;28;20198;-46
2024/04/06 12:35:35;;;;;;;;;;;16.40;99.90;;;;;;5097217;28;19991;-48
2024/04/06 12:38:01;;;;;;;;;;;16.40;99.90;;;;;;5097156;28;19908;-48
2024/04/06 12:40:26;;;;;;;;;;;16.40;99.90;;;;;;5107641;28;19908;-47
2024/04/06 12:42:53;;;;;;;;;;;16.40;99.90;;;;;;5103438;28;19912;-47
2024/04/06 12:45:18;;;;;;;;;;;16.40;99.90;;;;;;5099844;28;19912;-47
2024/04/06 12:47:44;;;;;;;;;;;16.40;99.90;;;;;;5096447;28;20399;-50
2024/04/06 12:50:09;;;;;;;;;;;16.40;99.90;;;;;;5095990;28;19920;-51
2024/04/06 12:52:35;;;;;;;;;;;16.40;99.90;;;;;;5094709;28;20382;-51
2024/04/06 12:55:00;;;;;;;;;;;16.40;99.90;;;;;;5093792;28;19955;-49
2024/04/06 12:57:45;;;;;;;;;;;16.40;99.90;;;;;;5091758;28;20691;-51
2024/04/06 13:00:13;;;;;;;;;;;16.40;99.90;;;;;;5092428;28;19912;-51
2024/04/06 13:02:40;;;;;;;;;;;16.40;99.90;;;;;;5094506;28;19916;-52
2024/04/06 13:05:06;;;;;;;;;;;16.40;99.90;;;;;;5094010;28;20456;-52
2024/04/06 13:07:34;;;;;;;;;;;16.40;99.90;;;;;;5093225;28;19912;-53
2024/04/06 13:10:00;;;;;;;;;;;16.40;99.90;;;;;;5093710;28;19916;-52
2024/04/06 13:12:30;;;;;;;;;;;16.40;99.90;;;;;;5094592;28;19970;-52
2024/04/06 13:14:59;;;;;;;;;;;16.40;99.90;;;;;;5095934;28;19916;-48
2024/04/06 13:17:25;;;;;;;;;;;16.40;99.90;;;;;;5091439;28;19908;-48
2024/04/06 13:19:51;;;;;;;;;;;16.40;99.90;;;;;;5097906;28;19966;-46
2024/04/06 13:22:16;;;;;;;;;;;16.40;99.90;;;;;;5104147;28;19908;-46
2024/04/06 13:24:42;;;;;;;;;;;16.40;99.90;;;;;;5100622;28;20019;-47
2024/04/06 13:27:08;;;;;;;;;;;16.40;99.90;;;;;;5098917;28;19908;-46
2024/04/06 13:29:34;;;;;;;;;;;16.40;99.90;;;;;;5095823;28;20410;-47
2024/04/06 13:31:59;;;;;;;;;;;16.40;99.90;;;;;;5099077;28;19926;-47
2024/04/06 13:34:25;;;;;;;;;;;16.40;99.90;;;;;;5099332;28;19916;-51
2024/04/06 13:36:52;;;;;;;;;;;16.40;99.90;;;;;;5096317;28;19916;-51
2024/04/06 13:39:19;;;;;;;;;;;16.40;99.90;;;;;;5097335;28;19923;-49
2024/04/06 13:41:48;;;;;;;;;;;16.40;99.90;;;;;;5097128;28;19912;-51
2024/04/06 13:44:14;;;;;;;;;;;16.40;99.90;;;;;;5096153;28;19912;-53
2024/04/06 13:46:39;;;;;;;;;;;16.40;99.90;;;;;;5102331;28;20345;-51
2024/04/06 13:49:09;;;;;;;;;;;16.40;99.90;;;;;;5096026;28;20389;-50
2024/04/06 13:51:35;;;;;;;;;;;16.40;99.90;;;;;;5091725;28;19965;-52
2024/04/06 13:54:01;;;;;;;;;;;16.40;99.90;;;;;;5100600;28;20334;-53
2024/04/06 13:56:27;;;;;;;;;;;16.40;99.90;;;;;;5101954;28;19912;-53
2024/04/06 13:58:53;;;;;;;;;;;16.40;99.90;;;;;;5098242;28;19999;-52
2024/04/06 14:01:19;;;;;;;;;;;16.40;99.90;;;;;;5101858;28;19948;-51
2024/04/06 14:03:44;;;;;;;;;;;16.40;99.90;;;;;;5098596;28;19933;-50
2024/04/06 14:06:10;;;;;;;;;;;16.40;99.90;;;;;;5100906;28;20283;-48
2024/04/06 14:08:35;;;;;;;;;;;16.40;99.90;;;;;;5101709;28;20384;-49